sensor_id;sensor_type;location;lat;lon;timestamp;pressure;altitude;pressure_sealevel;temperature;humidity
55466;BME280;41329;41.594;23.810;2023-05-08T00:00:19;95546.03;;;15.59;63.07
55466;BME280;41329;41.594;23.810;2023-05-08T00:02:44;95544.03;;;15.59;63.15
55466;BME280;41329;41.594;23.810;2023-05-08T00:05:10;95521.72;;;15.52;63.54
55466;BME280;41329;41.594;23.810;2023-05-08T00:07:36;95542.47;;;15.69;63.75
55466;BME280;41329;41.594;23.810;2023-05-08T00:10:03;95528.09;;;15.63;63.98
55466;BME280;41329;41.594;23.810;2023-05-08T00:12:29;95523.72;;;15.69;64.25
55466;BME280;41329;41.594;23.810;2023-05-08T00:14:55;95527.28;;;15.73;64.02
55466;BME280;41329;41.594;23.810;2023-05-08T00:17:20;95523.72;;;15.76;64.07
55466;BME280;41329;41.594;23.810;2023-05-08T00:19:46;95508.56;;;15.67;64.07
55466;BME280;41329;41.594;23.810;2023-05-08T00:22:12;95522.91;;;15.65;63.78
55466;BME280;41329;41.594;23.810;2023-05-08T00:24:37;95518.53;;;15.57;63.97
55466;BME280;41329;41.594;23.810;2023-05-08T00:27:02;95512.16;;;15.53;64.17
55466;BME280;41329;41.594;23.810;2023-05-08T00:29:28;95523.31;;;15.60;64.62
55466;BME280;41329;41.594;23.810;2023-05-08T00:31:53;95529.72;;;15.61;64.64
55466;BME280;41329;41.594;23.810;2023-05-08T00:34:18;95541.66;;;15.65;64.58
55466;BME280;41329;41.594;23.810;2023-05-08T00:36:44;95510.59;;;15.49;64.60
55466;BME280;41329;41.594;23.810;2023-05-08T00:39:09;95534.88;;;15.66;64.41
55466;BME280;41329;41.594;23.810;2023-05-08T00:41:35;95505.00;;;15.59;64.38
55466;BME280;41329;41.594;23.810;2023-05-08T00:44:00;95524.09;;;15.68;64.36
55466;BME280;41329;41.594;23.810;2023-05-08T00:46:26;95527.28;;;15.73;64.60
55466;BME280;41329;41.594;23.810;2023-05-08T00:48:52;95532.88;;;15.73;64.82
55466;BME280;41329;41.594;23.810;2023-05-08T00:51:17;95533.25;;;15.72;64.78
55466;BME280;41329;41.594;23.810;2023-05-08T00:53:43;95534.88;;;15.69;64.72
55466;BME280;41329;41.594;23.810;2023-05-08T00:56:11;95528.50;;;15.69;64.45
55466;BME280;41329;41.594;23.810;2023-05-08T00:58:38;95532.50;;;15.71;64.95
55466;BME280;41329;41.594;23.810;2023-05-08T01:01:04;95520.53;;;15.67;65.13
55466;BME280;41329;41.594;23.810;2023-05-08T01:03:31;95516.13;;;15.66;64.65
55466;BME280;41329;41.594;23.810;2023-05-08T01:05:58;95522.50;;;15.70;64.63
55466;BME280;41329;41.594;23.810;2023-05-08T01:08:24;95516.16;;;15.59;64.79
55466;BME280;41329;41.594;23.810;2023-05-08T01:13:31;95531.31;;;15.48;65.12
55466;BME280;41329;41.594;23.810;2023-05-08T01:16:09;95504.59;;;15.36;65.12
55466;BME280;41329;41.594;23.810;2023-05-08T01:18:58;95528.09;;;15.39;65.29
55466;BME280;41329;41.594;23.810;2023-05-08T01:21:36;95514.50;;;15.16;65.68
55466;BME280;41329;41.594;23.810;2023-05-08T01:32:18;95516.84;;;14.90;66.79
55466;BME280;41329;41.594;23.810;2023-05-08T01:35:02;95499.72;;;14.84;66.36
55466;BME280;41329;41.594;23.810;2023-05-08T01:37:39;95524.44;;;14.96;66.42
55466;BME280;41329;41.594;23.810;2023-05-08T01:43:24;95523.25;;;14.94;66.05
55466;BME280;41329;41.594;23.810;2023-05-08T01:45:53;95517.25;;;14.88;66.24
55466;BME280;41329;41.594;23.810;2023-05-08T02:03:56;95505.59;;;14.51;67.40
55466;BME280;41329;41.594;23.810;2023-05-08T02:06:23;95515.16;;;14.50;67.42
55466;BME280;41329;41.594;23.810;2023-05-08T02:08:50;95512.38;;;14.50;67.52
55466;BME280;41329;41.594;23.810;2023-05-08T02:11:18;95507.91;;;14.35;67.75
55466;BME280;41329;41.594;23.810;2023-05-08T02:13:46;95513.53;;;14.42;67.47
55466;BME280;41329;41.594;23.810;2023-05-08T02:16:12;95499.19;;;14.33;66.90
55466;BME280;41329;41.594;23.810;2023-05-08T02:18:43;95513.09;;;14.40;66.62
55466;BME280;41329;41.594;23.810;2023-05-08T02:21:11;95516.69;;;14.44;66.42
55466;BME280;41329;41.594;23.810;2023-05-08T02:23:38;95512.72;;;14.42;66.34
55466;BME280;41329;41.594;23.810;2023-05-08T02:26:05;95515.09;;;14.40;66.05
55466;BME280;41329;41.594;23.810;2023-05-08T02:28:32;95505.56;;;14.37;66.20
55466;BME280;41329;41.594;23.810;2023-05-08T02:31:00;95507.09;;;14.28;66.40
55466;BME280;41329;41.594;23.810;2023-05-08T02:33:26;95512.25;;;14.26;66.43
55466;BME280;41329;41.594;23.810;2023-05-08T02:35:55;95516.56;;;14.20;66.66
55466;BME280;41329;41.594;23.810;2023-05-08T02:38:23;95518.91;;;14.14;66.75
55466;BME280;41329;41.594;23.810;2023-05-08T02:40:53;95517.31;;;14.10;66.65
55466;BME280;41329;41.594;23.810;2023-05-08T02:43:19;95514.88;;;14.01;66.22
55466;BME280;41329;41.594;23.810;2023-05-08T02:45:48;95509.69;;;13.96;66.53
55466;BME280;41329;41.594;23.810;2023-05-08T02:48:32;95502.09;;;13.93;66.45
55466;BME280;41329;41.594;23.810;2023-05-08T02:51:17;95512.84;;;13.95;66.33
55466;BME280;41329;41.594;23.810;2023-05-08T02:54:17;95516.03;;;13.93;66.63
55466;BME280;41329;41.594;23.810;2023-05-08T03:04:54;95514.34;;;13.78;66.90
55466;BME280;41329;41.594;23.810;2023-05-08T03:07:24;95504.81;;;13.79;66.68
55466;BME280;41329;41.594;23.810;2023-05-08T03:09:57;95490.03;;;13.68;66.84
55466;BME280;41329;41.594;23.810;2023-05-08T03:12:27;95494.38;;;13.62;67.67
55466;BME280;41329;41.594;23.810;2023-05-08T03:15:02;95488.31;;;13.46;68.76
55466;BME280;41329;41.594;23.810;2023-05-08T03:17:31;95501.09;;;13.58;69.03
55466;BME280;41329;41.594;23.810;2023-05-08T03:20:01;95509.88;;;13.67;68.86
55466;BME280;41329;41.594;23.810;2023-05-08T03:22:29;95509.13;;;13.70;68.59
55466;BME280;41329;41.594;23.810;2023-05-08T03:24:58;95511.50;;;13.71;68.49
55466;BME280;41329;41.594;23.810;2023-05-08T03:27:27;95503.56;;;13.73;68.76
55466;BME280;41329;41.594;23.810;2023-05-08T03:29:54;95512.72;;;13.74;68.86
55466;BME280;41329;41.594;23.810;2023-05-08T03:32:23;95513.91;;;13.73;69.07
55466;BME280;41329;41.594;23.810;2023-05-08T03:34:50;95522.63;;;13.71;69.32
55466;BME280;41329;41.594;23.810;2023-05-08T03:37:16;95513.47;;;13.64;69.59
55466;BME280;41329;41.594;23.810;2023-05-08T03:39:42;95508.66;;;13.61;68.95
55466;BME280;41329;41.594;23.810;2023-05-08T03:42:08;95525.44;;;13.75;68.83
55466;BME280;41329;41.594;23.810;2023-05-08T03:44:34;95520.25;;;13.73;68.77
55466;BME280;41329;41.594;23.810;2023-05-08T03:47:01;95532.63;;;13.76;68.20
55466;BME280;41329;41.594;23.810;2023-05-08T03:49:28;95536.97;;;13.77;67.86
55466;BME280;41329;41.594;23.810;2023-05-08T03:51:55;95536.53;;;13.68;67.76
55466;BME280;41329;41.594;23.810;2023-05-08T03:54:20;95543.28;;;13.70;67.84
55466;BME280;41329;41.594;23.810;2023-05-08T03:56:50;95533.69;;;13.64;68.19
55466;BME280;41329;41.594;23.810;2023-05-08T03:59:23;95538.47;;;13.64;68.45
55466;BME280;41329;41.594;23.810;2023-05-08T04:01:54;95548.78;;;13.63;68.82
55466;BME280;41329;41.594;23.810;2023-05-08T04:04:39;95554.34;;;13.63;68.93
55466;BME280;41329;41.594;23.810;2023-05-08T04:07:10;95548.34;;;13.58;68.95
55466;BME280;41329;41.594;23.810;2023-05-08T04:12:14;95551.22;;;13.68;69.11
55466;BME280;41329;41.594;23.810;2023-05-08T04:14:44;95541.66;;;13.66;69.60
55466;BME280;41329;41.594;23.810;2023-05-08T04:17:14;95523.78;;;13.67;69.63
55466;BME280;41329;41.594;23.810;2023-05-08T04:19:45;95550.88;;;13.77;69.62
55466;BME280;41329;41.594;23.810;2023-05-08T04:22:11;95528.59;;;13.73;69.73
55466;BME280;41329;41.594;23.810;2023-05-08T04:24:42;95513.50;;;13.71;70.01
55466;BME280;41329;41.594;23.810;2023-05-08T04:27:08;95521.50;;;13.76;69.51
55466;BME280;41329;41.594;23.810;2023-05-08T04:29:35;95548.22;;;13.94;69.90
55466;BME280;41329;41.594;23.810;2023-05-08T04:32:03;95529.91;;;13.86;69.59
55466;BME280;41329;41.594;23.810;2023-05-08T04:34:30;95551.78;;;13.95;69.92
55466;BME280;41329;41.594;23.810;2023-05-08T04:36:55;95536.25;;;13.87;69.88
55466;BME280;41329;41.594;23.810;2023-05-08T04:39:21;95550.59;;;13.96;70.22
55466;BME280;41329;41.594;23.810;2023-05-08T04:41:47;95559.38;;;14.01;70.30
55466;BME280;41329;41.594;23.810;2023-05-08T04:44:13;95544.72;;;14.08;70.45
55466;BME280;41329;41.594;23.810;2023-05-08T04:46:38;95556.34;;;14.20;70.30
55466;BME280;41329;41.594;23.810;2023-05-08T04:49:04;95539.09;;;14.01;70.27
55466;BME280;41329;41.594;23.810;2023-05-08T04:51:29;95540.34;;;14.03;70.17
55466;BME280;41329;41.594;23.810;2023-05-08T04:53:56;95550.28;;;14.11;70.42
55466;BME280;41329;41.594;23.810;2023-05-08T04:56:21;95561.84;;;14.13;70.42
55466;BME280;41329;41.594;23.810;2023-05-08T04:58:47;95553.50;;;14.10;70.75
55466;BME280;41329;41.594;23.810;2023-05-08T05:01:12;95550.59;;;13.96;71.37
55466;BME280;41329;41.594;23.810;2023-05-08T05:03:38;95535.41;;;13.79;72.02
55466;BME280;41329;41.594;23.810;2023-05-08T05:06:04;95548.41;;;13.65;72.80
55466;BME280;41329;41.594;23.810;2023-05-08T05:08:29;95547.19;;;13.62;73.26
55466;BME280;41329;41.594;23.810;2023-05-08T05:10:55;95555.31;;;13.85;73.44
55466;BME280;41329;41.594;23.810;2023-05-08T05:13:20;95549.75;;;13.85;73.39
55466;BME280;41329;41.594;23.810;2023-05-08T05:15:46;95556.41;;;13.73;73.84
55466;BME280;41329;41.594;23.810;2023-05-08T05:18:11;95544.13;;;13.78;73.43
55466;BME280;41329;41.594;23.810;2023-05-08T05:20:37;95542.56;;;13.80;72.76
55466;BME280;41329;41.594;23.810;2023-05-08T05:23:02;95541.81;;;13.87;72.75
55466;BME280;41329;41.594;23.810;2023-05-08T05:25:29;95549.44;;;13.97;72.83
55466;BME280;41329;41.594;23.810;2023-05-08T05:27:54;95541.88;;;14.01;73.05
55466;BME280;41329;41.594;23.810;2023-05-08T05:30:20;95551.09;;;14.12;72.93
55466;BME280;41329;41.594;23.810;2023-05-08T05:32:45;95521.28;;;14.09;72.50
55466;BME280;41329;41.594;23.810;2023-05-08T05:35:11;95537.28;;;14.26;72.35
55466;BME280;41329;41.594;23.810;2023-05-08T05:37:37;95519.00;;;14.21;72.60
55466;BME280;41329;41.594;23.810;2023-05-08T05:40:03;95539.34;;;14.43;72.39
55466;BME280;41329;41.594;23.810;2023-05-08T05:42:28;95527.47;;;14.49;72.60
55466;BME280;41329;41.594;23.810;2023-05-08T05:44:53;95536.25;;;14.65;72.41
55466;BME280;41329;41.594;23.810;2023-05-08T05:47:21;95528.75;;;14.80;72.42
55466;BME280;41329;41.594;23.810;2023-05-08T05:49:46;95519.66;;;14.90;71.97
55466;BME280;41329;41.594;23.810;2023-05-08T05:52:12;95516.84;;;14.93;71.30
55466;BME280;41329;41.594;23.810;2023-05-08T05:54:38;95532.81;;;15.21;71.49
55466;BME280;41329;41.594;23.810;2023-05-08T05:57:03;95529.25;;;15.27;70.99
55466;BME280;41329;41.594;23.810;2023-05-08T05:59:29;95524.53;;;15.38;70.31
55466;BME280;41329;41.594;23.810;2023-05-08T06:01:55;95518.91;;;15.35;69.90
55466;BME280;41329;41.594;23.810;2023-05-08T06:04:20;95522.91;;;15.44;69.68
55466;BME280;41329;41.594;23.810;2023-05-08T06:06:45;95522.94;;;15.48;69.08
55466;BME280;41329;41.594;23.810;2023-05-08T06:09:11;95495.81;;;15.38;67.01
55466;BME280;41329;41.594;23.810;2023-05-08T06:11:36;95514.97;;;15.46;67.49
55466;BME280;41329;41.594;23.810;2023-05-08T06:14:02;95506.59;;;15.60;68.07
55466;BME280;41329;41.594;23.810;2023-05-08T06:16:27;95515.72;;;15.78;67.61
55466;BME280;41329;41.594;23.810;2023-05-08T06:18:54;95499.41;;;15.80;67.11
55466;BME280;41329;41.594;23.810;2023-05-08T06:21:20;95516.91;;;15.98;67.65
55466;BME280;41329;41.594;23.810;2023-05-08T06:23:45;95513.66;;;16.14;67.43
55466;BME280;41329;41.594;23.810;2023-05-08T06:26:10;95502.94;;;15.91;66.71
55466;BME280;41329;41.594;23.810;2023-05-08T06:28:36;95504.16;;;15.97;66.50
55466;BME280;41329;41.594;23.810;2023-05-08T06:31:01;95495.75;;;16.08;67.00
55466;BME280;41329;41.594;23.810;2023-05-08T06:33:27;95490.91;;;16.19;66.89
55466;BME280;41329;41.594;23.810;2023-05-08T06:35:52;95479.34;;;16.24;66.22
55466;BME280;41329;41.594;23.810;2023-05-08T06:38:17;95489.69;;;16.41;65.38
55466;BME280;41329;41.594;23.810;2023-05-08T06:40:44;95488.47;;;16.49;65.06
55466;BME280;41329;41.594;23.810;2023-05-08T06:43:10;95491.63;;;16.58;65.11
55466;BME280;41329;41.594;23.810;2023-05-08T06:45:36;95488.75;;;16.72;65.19
55466;BME280;41329;41.594;23.810;2023-05-08T06:48:01;95475.97;;;16.71;65.01
55466;BME280;41329;41.594;23.810;2023-05-08T06:50:27;95489.88;;;16.78;63.87
55466;BME280;41329;41.594;23.810;2023-05-08T06:52:52;95485.00;;;16.92;64.34
55466;BME280;41329;41.594;23.810;2023-05-08T06:55:18;95473.41;;;17.01;64.46
55466;BME280;41329;41.594;23.810;2023-05-08T06:57:43;95457.75;;;17.07;64.30
55466;BME280;41329;41.594;23.810;2023-05-08T07:00:09;95458.03;;;17.26;63.48
55466;BME280;41329;41.594;23.810;2023-05-08T07:02:35;95479.88;;;17.45;61.97
55466;BME280;41329;41.594;23.810;2023-05-08T07:05:01;95459.91;;;17.47;61.47
55466;BME280;41329;41.594;23.810;2023-05-08T07:07:27;95468.06;;;17.71;61.86
55466;BME280;41329;41.594;23.810;2023-05-08T07:09:52;95462.44;;;17.75;59.90
55466;BME280;41329;41.594;23.810;2023-05-08T07:12:17;95469.56;;;17.79;59.87
55466;BME280;41329;41.594;23.810;2023-05-08T07:14:44;95470.34;;;17.83;61.05
55466;BME280;41329;41.594;23.810;2023-05-08T07:17:09;95453.50;;;17.87;61.72
55466;BME280;41329;41.594;23.810;2023-05-08T07:19:35;95447.09;;;17.90;60.49
55466;BME280;41329;41.594;23.810;2023-05-08T07:22:01;95468.44;;;18.14;59.53
55466;BME280;41329;41.594;23.810;2023-05-08T07:24:26;95464.34;;;18.19;58.84
55466;BME280;41329;41.594;23.810;2023-05-08T07:26:52;95454.78;;;18.20;58.06
55466;BME280;41329;41.594;23.810;2023-05-08T07:29:17;95435.94;;;18.20;57.41
55466;BME280;41329;41.594;23.810;2023-05-08T07:31:44;95456.88;;;18.46;55.20
55466;BME280;41329;41.594;23.810;2023-05-08T07:34:11;95448.84;;;18.48;55.63
55466;BME280;41329;41.594;23.810;2023-05-08T07:36:36;95441.66;;;18.47;55.69
55466;BME280;41329;41.594;23.810;2023-05-08T07:39:03;95454.91;;;18.73;56.61
55466;BME280;41329;41.594;23.810;2023-05-08T07:41:28;95453.50;;;18.88;56.10
55466;BME280;41329;41.594;23.810;2023-05-08T07:43:54;95462.19;;;18.97;55.01
55466;BME280;41329;41.594;23.810;2023-05-08T07:46:20;95456.38;;;18.84;54.83
55466;BME280;41329;41.594;23.810;2023-05-08T07:48:45;95454.50;;;18.74;55.21
55466;BME280;41329;41.594;23.810;2023-05-08T07:51:11;95446.91;;;18.71;55.29
55466;BME280;41329;41.594;23.810;2023-05-08T07:53:37;95444.94;;;18.72;55.10
55466;BME280;41329;41.594;23.810;2023-05-08T07:56:02;95436.31;;;18.86;54.57
55466;BME280;41329;41.594;23.810;2023-05-08T07:58:28;95445.59;;;19.09;54.71
55466;BME280;41329;41.594;23.810;2023-05-08T08:00:53;95441.31;;;19.28;55.98
55466;BME280;41329;41.594;23.810;2023-05-08T08:03:19;95445.41;;;19.46;54.23
55466;BME280;41329;41.594;23.810;2023-05-08T08:05:44;95430.53;;;19.49;54.00
55466;BME280;41329;41.594;23.810;2023-05-08T08:08:09;95420.22;;;19.43;53.87
55466;BME280;41329;41.594;23.810;2023-05-08T08:10:35;95443.91;;;19.65;53.00
55466;BME280;41329;41.594;23.810;2023-05-08T08:13:00;95438.97;;;19.72;52.84
55466;BME280;41329;41.594;23.810;2023-05-08T08:15:26;95431.03;;;19.67;53.03
55466;BME280;41329;41.594;23.810;2023-05-08T08:17:53;95416.69;;;19.85;55.53
55466;BME280;41329;41.594;23.810;2023-05-08T08:20:18;95419.22;;;20.22;54.71
55466;BME280;41329;41.594;23.810;2023-05-08T08:22:44;95422.00;;;20.61;54.90
55466;BME280;41329;41.594;23.810;2023-05-08T08:25:10;95419.09;;;20.84;52.29
55466;BME280;41329;41.594;23.810;2023-05-08T08:27:35;95415.19;;;20.78;50.30
55466;BME280;41329;41.594;23.810;2023-05-08T08:30:00;95415.72;;;20.92;51.88
55466;BME280;41329;41.594;23.810;2023-05-08T08:32:26;95407.22;;;21.12;50.14
55466;BME280;41329;41.594;23.810;2023-05-08T08:34:51;95383.38;;;21.00;49.38
55466;BME280;41329;41.594;23.810;2023-05-08T08:37:17;95402.47;;;21.25;51.00
55466;BME280;41329;41.594;23.810;2023-05-08T08:39:42;95389.22;;;21.25;50.21
55466;BME280;41329;41.594;23.810;2023-05-08T08:42:08;95387.28;;;21.38;49.98
55466;BME280;41329;41.594;23.810;2023-05-08T08:44:33;95380.56;;;21.48;48.40
55466;BME280;41329;41.594;23.810;2023-05-08T08:46:59;95359.22;;;21.51;48.32
55466;BME280;41329;41.594;23.810;2023-05-08T08:49:34;95375.31;;;21.66;48.43
55466;BME280;41329;41.594;23.810;2023-05-08T08:54:59;95377.25;;;21.53;47.98
55466;BME280;41329;41.594;23.810;2023-05-08T08:57:27;95372.84;;;21.52;48.41
55466;BME280;41329;41.594;23.810;2023-05-08T08:59:57;95366.84;;;21.66;48.74
55466;BME280;41329;41.594;23.810;2023-05-08T09:02:24;95372.66;;;21.91;48.93
55466;BME280;41329;41.594;23.810;2023-05-08T09:04:50;95357.56;;;21.98;47.49
55466;BME280;41329;41.594;23.810;2023-05-08T09:07:16;95344.22;;;22.14;47.52
55466;BME280;41329;41.594;23.810;2023-05-08T09:09:42;95341.72;;;22.45;48.90
55466;BME280;41329;41.594;23.810;2023-05-08T09:12:12;95333.75;;;22.56;47.04
55466;BME280;41329;41.594;23.810;2023-05-08T09:14:38;95325.63;;;22.58;43.79
55466;BME280;41329;41.594;23.810;2023-05-08T09:17:04;95334.66;;;22.53;44.92
55466;BME280;41329;41.594;23.810;2023-05-08T09:19:29;95325.50;;;22.49;46.20
55466;BME280;41329;41.594;23.810;2023-05-08T09:21:58;95311.88;;;22.60;45.01
55466;BME280;41329;41.594;23.810;2023-05-08T09:24:24;95319.09;;;22.73;45.15
55466;BME280;41329;41.594;23.810;2023-05-08T09:26:52;95323.03;;;22.76;44.35
55466;BME280;41329;41.594;23.810;2023-05-08T09:29:19;95320.09;;;22.67;44.13
55466;BME280;41329;41.594;23.810;2023-05-08T09:31:49;95317.53;;;22.60;44.10
55466;BME280;41329;41.594;23.810;2023-05-08T09:34:28;95311.97;;;22.56;45.55
55466;BME280;41329;41.594;23.810;2023-05-08T09:37:10;95312.00;;;22.94;46.56
55466;BME280;41329;41.594;23.810;2023-05-08T09:39:36;95300.84;;;23.03;44.58
55466;BME280;41329;41.594;23.810;2023-05-08T09:42:05;95308.59;;;23.12;44.57
55466;BME280;41329;41.594;23.810;2023-05-08T09:44:51;95313.25;;;23.06;43.15
55466;BME280;41329;41.594;23.810;2023-05-08T09:47:23;95296.75;;;23.04;43.26
55466;BME280;41329;41.594;23.810;2023-05-08T09:50:16;95299.13;;;22.93;43.33
55466;BME280;41329;41.594;23.810;2023-05-08T09:52:46;95305.69;;;22.90;44.01
55466;BME280;41329;41.594;23.810;2023-05-08T09:55:13;95307.13;;;22.94;43.69
55466;BME280;41329;41.594;23.810;2023-05-08T09:57:48;95305.56;;;22.93;44.33
55466;BME280;41329;41.594;23.810;2023-05-08T10:00:16;95290.47;;;22.88;44.71
55466;BME280;41329;41.594;23.810;2023-05-08T10:02:56;95279.84;;;22.79;44.07
55466;BME280;41329;41.594;23.810;2023-05-08T10:05:32;95294.63;;;22.83;44.23
55466;BME280;41329;41.594;23.810;2023-05-08T10:08:17;95292.03;;;22.63;44.04
55466;BME280;41329;41.594;23.810;2023-05-08T10:10:42;95285.75;;;22.43;44.17
55466;BME280;41329;41.594;23.810;2023-05-08T10:13:08;95267.28;;;22.42;44.75
55466;BME280;41329;41.594;23.810;2023-05-08T10:15:36;95279.63;;;22.61;44.61
55466;BME280;41329;41.594;23.810;2023-05-08T10:18:03;95274.66;;;22.65;44.53
55466;BME280;41329;41.594;23.810;2023-05-08T10:20:34;95272.72;;;22.62;43.27
55466;BME280;41329;41.594;23.810;2023-05-08T10:23:03;95267.97;;;22.59;43.71
55466;BME280;41329;41.594;23.810;2023-05-08T10:25:35;95269.34;;;22.67;44.45
55466;BME280;41329;41.594;23.810;2023-05-08T10:28:14;95272.59;;;22.65;43.88
55466;BME280;41329;41.594;23.810;2023-05-08T10:30:43;95261.31;;;22.65;43.46
55466;BME280;41329;41.594;23.810;2023-05-08T10:33:13;95267.44;;;22.76;44.06
55466;BME280;41329;41.594;23.810;2023-05-08T10:35:39;95260.66;;;22.86;44.31
55466;BME280;41329;41.594;23.810;2023-05-08T10:38:07;95258.28;;;22.98;44.16
55466;BME280;41329;41.594;23.810;2023-05-08T10:40:33;95257.34;;;23.13;44.14
55466;BME280;41329;41.594;23.810;2023-05-08T10:42:59;95251.25;;;23.27;44.81
55466;BME280;41329;41.594;23.810;2023-05-08T10:45:25;95249.75;;;23.35;44.08
55466;BME280;41329;41.594;23.810;2023-05-08T10:48:21;95247.94;;;23.41;45.40
55466;BME280;41329;41.594;23.810;2023-05-08T10:56:42;95236.03;;;23.80;43.36
55466;BME280;41329;41.594;23.810;2023-05-08T10:59:19;95219.41;;;23.82;43.06
55466;BME280;41329;41.594;23.810;2023-05-08T11:01:48;95210.75;;;23.77;43.95
55466;BME280;41329;41.594;23.810;2023-05-08T11:04:23;95228.22;;;23.84;40.75
55466;BME280;41329;41.594;23.810;2023-05-08T11:06:49;95208.63;;;23.90;41.02
55466;BME280;41329;41.594;23.810;2023-05-08T11:09:21;95209.03;;;24.22;40.85
55466;BME280;41329;41.594;23.810;2023-05-08T11:11:53;95222.72;;;24.54;39.27
55466;BME280;41329;41.594;23.810;2023-05-08T11:14:24;95213.56;;;24.20;37.43
55466;BME280;41329;41.594;23.810;2023-05-08T11:19:20;95195.28;;;24.12;38.47
55466;BME280;41329;41.594;23.810;2023-05-08T11:24:47;95205.84;;;24.81;38.24
55466;BME280;41329;41.594;23.810;2023-05-08T11:27:14;95166.78;;;25.07;38.66
55466;BME280;41329;41.594;23.810;2023-05-08T11:29:40;95165.06;;;25.09;34.59
55466;BME280;41329;41.594;23.810;2023-05-08T11:32:05;95193.59;;;25.42;35.97
55466;BME280;41329;41.594;23.810;2023-05-08T11:37:29;95188.56;;;25.82;38.54
55466;BME280;41329;41.594;23.810;2023-05-08T11:43:18;95168.63;;;26.36;33.97
55466;BME280;41329;41.594;23.810;2023-05-08T11:45:44;95172.56;;;26.29;33.17
55466;BME280;41329;41.594;23.810;2023-05-08T11:48:13;95192.97;;;26.01;33.27
55466;BME280;41329;41.594;23.810;2023-05-08T11:50:40;95195.81;;;25.74;33.96
55466;BME280;41329;41.594;23.810;2023-05-08T11:53:06;95198.00;;;25.70;34.89
55466;BME280;41329;41.594;23.810;2023-05-08T11:55:31;95221.78;;;25.63;34.70
55466;BME280;41329;41.594;23.810;2023-05-08T11:57:57;95219.88;;;25.33;36.90
55466;BME280;41329;41.594;23.810;2023-05-08T12:00:22;95248.84;;;24.98;41.72
55466;BME280;41329;41.594;23.810;2023-05-08T12:02:48;95273.44;;;24.27;44.01
55466;BME280;41329;41.594;23.810;2023-05-08T12:05:13;95277.91;;;23.94;45.15
55466;BME280;41329;41.594;23.810;2023-05-08T12:07:45;95287.06;;;23.64;46.40
55466;BME280;41329;41.594;23.810;2023-05-08T12:10:11;95308.28;;;23.22;46.50
55466;BME280;41329;41.594;23.810;2023-05-08T12:12:42;95312.81;;;22.41;48.11
55466;BME280;41329;41.594;23.810;2023-05-08T12:15:09;95306.59;;;21.64;50.37
55466;BME280;41329;41.594;23.810;2023-05-08T12:17:35;95276.75;;;21.22;51.36
55466;BME280;41329;41.594;23.810;2023-05-08T12:20:18;95292.38;;;21.23;52.21
55466;BME280;41329;41.594;23.810;2023-05-08T12:22:51;95297.41;;;20.99;53.91
55466;BME280;41329;41.594;23.810;2023-05-08T12:25:17;95282.16;;;20.81;56.54
55466;BME280;41329;41.594;23.810;2023-05-08T12:27:43;95255.78;;;20.59;55.81
55466;BME280;41329;41.594;23.810;2023-05-08T12:30:13;95282.31;;;20.58;57.39
55466;BME280;41329;41.594;23.810;2023-05-08T12:32:42;95278.69;;;20.41;58.81
55466;BME280;41329;41.594;23.810;2023-05-08T12:35:09;95256.06;;;20.13;59.39
55466;BME280;41329;41.594;23.810;2023-05-08T12:37:35;95260.66;;;19.84;60.60
55466;BME280;41329;41.594;23.810;2023-05-08T12:40:01;95268.00;;;19.78;60.52
55466;BME280;41329;41.594;23.810;2023-05-08T12:42:44;95285.66;;;19.78;60.46
55466;BME280;41329;41.594;23.810;2023-05-08T12:45:20;95292.78;;;19.83;60.72
55466;BME280;41329;41.594;23.810;2023-05-08T12:47:51;95267.28;;;19.74;60.73
55466;BME280;41329;41.594;23.810;2023-05-08T12:50:17;95274.75;;;19.80;63.49
55466;BME280;41329;41.594;23.810;2023-05-08T12:52:45;95243.09;;;19.60;63.88
55466;BME280;41329;41.594;23.810;2023-05-08T12:55:28;95232.44;;;19.52;63.97
55466;BME280;41329;41.594;23.810;2023-05-08T13:00:42;95249.66;;;19.73;63.28
55466;BME280;41329;41.594;23.810;2023-05-08T13:03:10;95258.63;;;19.84;64.64
55466;BME280;41329;41.594;23.810;2023-05-08T13:05:36;95259.94;;;19.99;66.21
55466;BME280;41329;41.594;23.810;2023-05-08T13:08:04;95256.84;;;20.13;66.48
55466;BME280;41329;41.594;23.810;2023-05-08T13:10:50;95246.88;;;20.28;67.53
55466;BME280;41329;41.594;23.810;2023-05-08T13:13:17;95223.44;;;20.35;67.94
55466;BME280;41329;41.594;23.810;2023-05-08T13:15:43;95243.22;;;20.63;69.67
55466;BME280;41329;41.594;23.810;2023-05-08T13:18:09;95225.84;;;20.52;70.65
55466;BME280;41329;41.594;23.810;2023-05-08T13:20:35;95237.00;;;20.72;66.62
55466;BME280;41329;41.594;23.810;2023-05-08T13:23:01;95238.06;;;20.94;63.75
55466;BME280;41329;41.594;23.810;2023-05-08T13:25:27;95229.09;;;20.67;61.86
55466;BME280;41329;41.594;23.810;2023-05-08T13:27:53;95242.78;;;20.65;61.11
55466;BME280;41329;41.594;23.810;2023-05-08T13:30:19;95234.19;;;20.56;60.62
55466;BME280;41329;41.594;23.810;2023-05-08T13:32:49;95236.63;;;20.54;60.97
55466;BME280;41329;41.594;23.810;2023-05-08T13:35:16;95236.72;;;20.50;61.27
55466;BME280;41329;41.594;23.810;2023-05-08T13:37:41;95223.75;;;20.01;61.26
55466;BME280;41329;41.594;23.810;2023-05-08T13:40:07;95233.66;;;19.90;62.72
55466;BME280;41329;41.594;23.810;2023-05-08T13:42:32;95230.91;;;20.06;63.45
55466;BME280;41329;41.594;23.810;2023-05-08T13:44:58;95225.22;;;20.09;62.73
55466;BME280;41329;41.594;23.810;2023-05-08T13:47:23;95233.78;;;20.02;61.16
55466;BME280;41329;41.594;23.810;2023-05-08T13:49:49;95229.97;;;19.93;61.31
55466;BME280;41329;41.594;23.810;2023-05-08T13:52:15;95209.59;;;19.89;62.45
55466;BME280;41329;41.594;23.810;2023-05-08T13:54:40;95229.31;;;20.24;62.14
55466;BME280;41329;41.594;23.810;2023-05-08T13:57:06;95235.22;;;20.46;63.22